sensor_id;sensor_type;location;lat;lon;timestamp;P1;durP1;ratioP1;P2;durP2;ratioP2
78322;SDS011;67583;50.616;-3.404;2023-05-07T00:01:11;11.73;;;4.13;;
78322;SDS011;67583;50.616;-3.404;2023-05-07T00:03:37;13.38;;;4.95;;
78322;SDS011;67583;50.616;-3.404;2023-05-07T00:06:03;9.68;;;4.20;;
78322;SDS011;67583;50.616;-3.404;2023-05-07T00:08:28;13.05;;;5.30;;
78322;SDS011;67583;50.616;-3.404;2023-05-07T00:10:55;9.73;;;3.63;;
78322;SDS011;67583;50.616;-3.404;2023-05-07T00:13:20;12.57;;;3.85;;
78322;SDS011;67583;50.616;-3.404;2023-05-07T00:15:45;11.75;;;4.30;;
78322;SDS011;67583;50.616;-3.404;2023-05-07T00:18:11;7.72;;;3.40;;
78322;SDS011;67583;50.616;-3.404;2023-05-07T00:20:36;10.75;;;4.55;;
78322;SDS011;67583;50.616;-3.404;2023-05-07T00:23:01;12.63;;;3.90;;
78322;SDS011;67583;50.616;-3.404;2023-05-07T00:25:27;9.50;;;3.75;;
78322;SDS011;67583;50.616;-3.404;2023-05-07T00:27:52;12.30;;;4.82;;
78322;SDS011;67583;50.616;-3.404;2023-05-07T00:30:18;17.33;;;4.82;;
78322;SDS011;67583;50.616;-3.404;2023-05-07T00:32:43;8.45;;;3.85;;
78322;SDS011;67583;50.616;-3.404;2023-05-07T00:35:10;10.85;;;4.28;;
78322;SDS011;67583;50.616;-3.404;2023-05-07T00:37:36;12.00;;;4.07;;
78322;SDS011;67583;50.616;-3.404;2023-05-07T00:40:01;18.00;;;4.38;;
78322;SDS011;67583;50.616;-3.404;2023-05-07T00:42:29;7.88;;;3.83;;
78322;SDS011;67583;50.616;-3.404;2023-05-07T00:44:57;9.75;;;3.72;;
78322;SDS011;67583;50.616;-3.404;2023-05-07T00:47:22;12.13;;;4.45;;
78322;SDS011;67583;50.616;-3.404;2023-05-07T00:49:48;17.65;;;5.40;;
78322;SDS011;67583;50.616;-3.404;2023-05-07T00:52:14;12.25;;;3.90;;
78322;SDS011;67583;50.616;-3.404;2023-05-07T00:54:41;15.30;;;4.30;;
78322;SDS011;67583;50.616;-3.404;2023-05-07T00:57:06;10.73;;;4.45;;
78322;SDS011;67583;50.616;-3.404;2023-05-07T00:59:32;12.15;;;5.13;;
78322;SDS011;67583;50.616;-3.404;2023-05-07T01:01:58;14.93;;;4.38;;
78322;SDS011;67583;50.616;-3.404;2023-05-07T01:04:23;11.27;;;4.07;;
78322;SDS011;67583;50.616;-3.404;2023-05-07T01:06:49;12.57;;;4.43;;
78322;SDS011;67583;50.616;-3.404;2023-05-07T01:09:15;10.52;;;3.33;;
78322;SDS011;67583;50.616;-3.404;2023-05-07T01:11:41;12.68;;;4.15;;
78322;SDS011;67583;50.616;-3.404;2023-05-07T01:14:07;12.18;;;4.53;;
78322;SDS011;67583;50.616;-3.404;2023-05-07T01:16:34;17.23;;;5.38;;
78322;SDS011;67583;50.616;-3.404;2023-05-07T01:18:59;13.38;;;4.82;;
78322;SDS011;67583;50.616;-3.404;2023-05-07T01:21:25;10.45;;;4.28;;
78322;SDS011;67583;50.616;-3.404;2023-05-07T01:23:51;13.13;;;4.25;;
78322;SDS011;67583;50.616;-3.404;2023-05-07T01:26:17;9.13;;;3.63;;
78322;SDS011;67583;50.616;-3.404;2023-05-07T01:28:44;13.45;;;4.25;;
78322;SDS011;67583;50.616;-3.404;2023-05-07T01:31:10;11.15;;;4.57;;
78322;SDS011;67583;50.616;-3.404;2023-05-07T01:33:37;10.63;;;4.32;;
78322;SDS011;67583;50.616;-3.404;2023-05-07T01:36:03;14.05;;;4.20;;
78322;SDS011;67583;50.616;-3.404;2023-05-07T01:38:31;13.18;;;3.95;;
78322;SDS011;67583;50.616;-3.404;2023-05-07T01:40:57;13.57;;;4.53;;
78322;SDS011;67583;50.616;-3.404;2023-05-07T01:43:23;13.88;;;4.07;;
78322;SDS011;67583;50.616;-3.404;2023-05-07T01:45:48;10.43;;;5.68;;
78322;SDS011;67583;50.616;-3.404;2023-05-07T01:48:14;13.82;;;3.80;;
78322;SDS011;67583;50.616;-3.404;2023-05-07T01:50:40;22.45;;;5.10;;
78322;SDS011;67583;50.616;-3.404;2023-05-07T01:53:06;8.77;;;4.07;;
78322;SDS011;67583;50.616;-3.404;2023-05-07T01:55:32;11.40;;;4.35;;
78322;SDS011;67583;50.616;-3.404;2023-05-07T01:57:57;13.82;;;5.07;;
78322;SDS011;67583;50.616;-3.404;2023-05-07T02:00:23;12.65;;;4.10;;
78322;SDS011;67583;50.616;-3.404;2023-05-07T02:02:49;13.38;;;4.90;;
78322;SDS011;67583;50.616;-3.404;2023-05-07T02:05:15;12.38;;;5.13;;
78322;SDS011;67583;50.616;-3.404;2023-05-07T02:07:40;12.88;;;3.85;;
78322;SDS011;67583;50.616;-3.404;2023-05-07T02:10:06;9.35;;;4.03;;
78322;SDS011;67583;50.616;-3.404;2023-05-07T02:12:32;14.48;;;4.78;;
78322;SDS011;67583;50.616;-3.404;2023-05-07T02:14:58;15.70;;;4.43;;
78322;SDS011;67583;50.616;-3.404;2023-05-07T02:17:24;16.80;;;5.90;;
78322;SDS011;67583;50.616;-3.404;2023-05-07T02:19:49;26.23;;;5.32;;
78322;SDS011;67583;50.616;-3.404;2023-05-07T02:22:14;10.90;;;4.75;;
78322;SDS011;67583;50.616;-3.404;2023-05-07T02:24:40;9.90;;;4.55;;
78322;SDS011;67583;50.616;-3.404;2023-05-07T02:27:05;10.05;;;4.07;;
78322;SDS011;67583;50.616;-3.404;2023-05-07T02:29:31;18.60;;;5.10;;
78322;SDS011;67583;50.616;-3.404;2023-05-07T02:31:57;16.17;;;4.93;;
78322;SDS011;67583;50.616;-3.404;2023-05-07T02:34:22;11.00;;;3.90;;
78322;SDS011;67583;50.616;-3.404;2023-05-07T02:36:47;15.93;;;4.85;;
78322;SDS011;67583;50.616;-3.404;2023-05-07T02:39:13;10.27;;;4.07;;
78322;SDS011;67583;50.616;-3.404;2023-05-07T02:41:38;11.15;;;4.82;;
78322;SDS011;67583;50.616;-3.404;2023-05-07T02:44:04;11.13;;;3.83;;
78322;SDS011;67583;50.616;-3.404;2023-05-07T02:46:30;7.70;;;3.35;;
78322;SDS011;67583;50.616;-3.404;2023-05-07T02:48:55;10.27;;;4.30;;
78322;SDS011;67583;50.616;-3.404;2023-05-07T02:51:21;11.88;;;3.63;;
78322;SDS011;67583;50.616;-3.404;2023-05-07T02:53:47;15.85;;;5.32;;
78322;SDS011;67583;50.616;-3.404;2023-05-07T02:56:12;9.43;;;3.70;;
78322;SDS011;67583;50.616;-3.404;2023-05-07T02:58:38;14.95;;;5.03;;
78322;SDS011;67583;50.616;-3.404;2023-05-07T03:01:07;12.00;;;4.43;;
78322;SDS011;67583;50.616;-3.404;2023-05-07T03:03:32;11.55;;;3.92;;
78322;SDS011;67583;50.616;-3.404;2023-05-07T03:05:58;18.73;;;4.45;;
78322;SDS011;67583;50.616;-3.404;2023-05-07T03:08:24;16.77;;;4.43;;
78322;SDS011;67583;50.616;-3.404;2023-05-07T03:10:49;13.77;;;5.18;;
78322;SDS011;67583;50.616;-3.404;2023-05-07T03:13:15;10.82;;;5.10;;
78322;SDS011;67583;50.616;-3.404;2023-05-07T03:15:40;11.00;;;4.28;;
78322;SDS011;67583;50.616;-3.404;2023-05-07T03:18:06;10.02;;;4.30;;
78322;SDS011;67583;50.616;-3.404;2023-05-07T03:20:31;10.80;;;3.75;;
78322;SDS011;67583;50.616;-3.404;2023-05-07T03:22:56;9.02;;;5.10;;
78322;SDS011;67583;50.616;-3.404;2023-05-07T03:25:22;17.17;;;4.43;;
78322;SDS011;67583;50.616;-3.404;2023-05-07T03:27:48;10.30;;;3.92;;
78322;SDS011;67583;50.616;-3.404;2023-05-07T03:30:13;11.02;;;4.35;;
78322;SDS011;67583;50.616;-3.404;2023-05-07T03:32:39;11.82;;;4.53;;
78322;SDS011;67583;50.616;-3.404;2023-05-07T03:35:05;12.77;;;4.47;;
78322;SDS011;67583;50.616;-3.404;2023-05-07T03:37:30;12.15;;;4.28;;
78322;SDS011;67583;50.616;-3.404;2023-05-07T03:39:56;13.68;;;4.47;;
78322;SDS011;67583;50.616;-3.404;2023-05-07T03:42:21;9.60;;;3.70;;
78322;SDS011;67583;50.616;-3.404;2023-05-07T03:44:46;11.75;;;4.40;;
78322;SDS011;67583;50.616;-3.404;2023-05-07T03:47:12;11.25;;;4.40;;
78322;SDS011;67583;50.616;-3.404;2023-05-07T03:49:38;9.48;;;4.13;;
78322;SDS011;67583;50.616;-3.404;2023-05-07T03:52:04;18.50;;;4.53;;
78322;SDS011;67583;50.616;-3.404;2023-05-07T03:54:30;15.35;;;4.32;;
78322;SDS011;67583;50.616;-3.404;2023-05-07T03:56:55;14.45;;;4.85;;
78322;SDS011;67583;50.616;-3.404;2023-05-07T03:59:21;17.05;;;4.53;;
78322;SDS011;67583;50.616;-3.404;2023-05-07T04:01:47;9.38;;;4.80;;
78322;SDS011;67583;50.616;-3.404;2023-05-07T04:04:13;10.18;;;4.00;;
78322;SDS011;67583;50.616;-3.404;2023-05-07T04:06:39;12.20;;;4.18;;
78322;SDS011;67583;50.616;-3.404;2023-05-07T04:09:05;14.90;;;4.28;;
78322;SDS011;67583;50.616;-3.404;2023-05-07T04:11:31;9.82;;;3.53;;
78322;SDS011;67583;50.616;-3.404;2023-05-07T04:13:57;12.38;;;4.50;;
78322;SDS011;67583;50.616;-3.404;2023-05-07T04:16:22;11.98;;;4.93;;
78322;SDS011;67583;50.616;-3.404;2023-05-07T04:18:48;13.52;;;4.32;;
78322;SDS011;67583;50.616;-3.404;2023-05-07T04:21:17;10.75;;;3.05;;
78322;SDS011;67583;50.616;-3.404;2023-05-07T04:23:44;8.60;;;3.25;;
78322;SDS011;67583;50.616;-3.404;2023-05-07T04:26:09;10.05;;;4.13;;
78322;SDS011;67583;50.616;-3.404;2023-05-07T04:28:35;14.43;;;4.20;;
78322;SDS011;67583;50.616;-3.404;2023-05-07T04:31:01;7.05;;;3.47;;
78322;SDS011;67583;50.616;-3.404;2023-05-07T04:33:26;11.00;;;3.78;;
78322;SDS011;67583;50.616;-3.404;2023-05-07T04:35:51;13.43;;;4.63;;
78322;SDS011;67583;50.616;-3.404;2023-05-07T04:38:17;11.35;;;4.57;;
78322;SDS011;67583;50.616;-3.404;2023-05-07T04:40:43;18.33;;;3.75;;
78322;SDS011;67583;50.616;-3.404;2023-05-07T04:43:09;12.02;;;4.00;;
78322;SDS011;67583;50.616;-3.404;2023-05-07T04:45:35;13.48;;;4.00;;
78322;SDS011;67583;50.616;-3.404;2023-05-07T04:48:01;9.35;;;3.88;;
78322;SDS011;67583;50.616;-3.404;2023-05-07T04:50:26;9.85;;;4.95;;
78322;SDS011;67583;50.616;-3.404;2023-05-07T04:52:51;9.88;;;4.20;;
78322;SDS011;67583;50.616;-3.404;2023-05-07T04:55:17;12.90;;;3.45;;
78322;SDS011;67583;50.616;-3.404;2023-05-07T04:57:42;14.95;;;3.58;;
78322;SDS011;67583;50.616;-3.404;2023-05-07T05:00:08;14.70;;;3.90;;
78322;SDS011;67583;50.616;-3.404;2023-05-07T05:02:34;8.27;;;3.95;;
78322;SDS011;67583;50.616;-3.404;2023-05-07T05:05:00;9.55;;;3.65;;
78322;SDS011;67583;50.616;-3.404;2023-05-07T05:07:27;17.85;;;5.32;;
78322;SDS011;67583;50.616;-3.404;2023-05-07T05:09:53;7.47;;;3.25;;
78322;SDS011;67583;50.616;-3.404;2023-05-07T05:12:18;11.80;;;3.97;;
78322;SDS011;67583;50.616;-3.404;2023-05-07T05:14:44;12.43;;;3.92;;
78322;SDS011;67583;50.616;-3.404;2023-05-07T05:17:09;9.43;;;3.03;;
78322;SDS011;67583;50.616;-3.404;2023-05-07T05:19:35;6.45;;;3.80;;
78322;SDS011;67583;50.616;-3.404;2023-05-07T05:22:01;11.77;;;3.38;;
78322;SDS011;67583;50.616;-3.404;2023-05-07T05:24:28;8.38;;;3.30;;
78322;SDS011;67583;50.616;-3.404;2023-05-07T05:26:54;12.20;;;4.28;;
78322;SDS011;67583;50.616;-3.404;2023-05-07T05:29:19;16.23;;;4.53;;
78322;SDS011;67583;50.616;-3.404;2023-05-07T05:31:45;15.60;;;5.22;;
78322;SDS011;67583;50.616;-3.404;2023-05-07T05:34:10;11.95;;;4.22;;
78322;SDS011;67583;50.616;-3.404;2023-05-07T05:36:35;17.55;;;5.95;;
78322;SDS011;67583;50.616;-3.404;2023-05-07T05:39:01;12.32;;;4.80;;
78322;SDS011;67583;50.616;-3.404;2023-05-07T05:41:26;10.30;;;4.05;;
78322;SDS011;67583;50.616;-3.404;2023-05-07T05:43:51;11.43;;;4.15;;
78322;SDS011;67583;50.616;-3.404;2023-05-07T05:46:17;12.40;;;3.85;;
78322;SDS011;67583;50.616;-3.404;2023-05-07T05:48:42;10.13;;;4.35;;
78322;SDS011;67583;50.616;-3.404;2023-05-07T05:51:08;13.25;;;4.25;;
78322;SDS011;67583;50.616;-3.404;2023-05-07T05:53:33;8.43;;;3.72;;
78322;SDS011;67583;50.616;-3.404;2023-05-07T05:55:58;6.47;;;4.55;;
78322;SDS011;67583;50.616;-3.404;2023-05-07T05:58:24;7.43;;;3.97;;
78322;SDS011;67583;50.616;-3.404;2023-05-07T06:00:49;8.65;;;3.30;;
78322;SDS011;67583;50.616;-3.404;2023-05-07T06:03:17;8.57;;;4.45;;
78322;SDS011;67583;50.616;-3.404;2023-05-07T06:05:43;6.50;;;3.95;;
78322;SDS011;67583;50.616;-3.404;2023-05-07T06:08:08;10.73;;;3.65;;
78322;SDS011;67583;50.616;-3.404;2023-05-07T06:10:35;12.73;;;4.20;;
78322;SDS011;67583;50.616;-3.404;2023-05-07T06:13:01;9.77;;;3.20;;
78322;SDS011;67583;50.616;-3.404;2023-05-07T06:15:27;13.98;;;3.97;;
78322;SDS011;67583;50.616;-3.404;2023-05-07T06:17:52;15.40;;;4.60;;
78322;SDS011;67583;50.616;-3.404;2023-05-07T06:20:17;10.40;;;4.43;;
78322;SDS011;67583;50.616;-3.404;2023-05-07T06:22:43;15.27;;;4.38;;
78322;SDS011;67583;50.616;-3.404;2023-05-07T06:25:08;16.23;;;5.95;;
78322;SDS011;67583;50.616;-3.404;2023-05-07T06:27:34;12.43;;;4.35;;
78322;SDS011;67583;50.616;-3.404;2023-05-07T06:29:59;17.70;;;3.80;;
78322;SDS011;67583;50.616;-3.404;2023-05-07T06:32:25;10.07;;;4.38;;
78322;SDS011;67583;50.616;-3.404;2023-05-07T06:34:50;14.45;;;4.38;;
78322;SDS011;67583;50.616;-3.404;2023-05-07T06:37:15;11.27;;;5.05;;
78322;SDS011;67583;50.616;-3.404;2023-05-07T06:39:41;10.95;;;4.18;;
78322;SDS011;67583;50.616;-3.404;2023-05-07T06:42:07;12.75;;;4.30;;
78322;SDS011;67583;50.616;-3.404;2023-05-07T06:44:32;11.40;;;3.53;;
78322;SDS011;67583;50.616;-3.404;2023-05-07T06:46:57;7.38;;;3.40;;
78322;SDS011;67583;50.616;-3.404;2023-05-07T06:49:23;17.70;;;4.05;;
78322;SDS011;67583;50.616;-3.404;2023-05-07T06:51:48;9.77;;;3.30;;
78322;SDS011;67583;50.616;-3.404;2023-05-07T06:54:14;9.15;;;3.13;;
78322;SDS011;67583;50.616;-3.404;2023-05-07T06:56:40;9.18;;;3.35;;
78322;SDS011;67583;50.616;-3.404;2023-05-07T06:59:06;8.95;;;3.50;;
78322;SDS011;67583;50.616;-3.404;2023-05-07T07:01:31;9.95;;;2.85;;
78322;SDS011;67583;50.616;-3.404;2023-05-07T07:03:57;10.50;;;3.03;;
78322;SDS011;67583;50.616;-3.404;2023-05-07T07:06:22;9.85;;;3.63;;
78322;SDS011;67583;50.616;-3.404;2023-05-07T07:08:48;11.07;;;2.95;;
78322;SDS011;67583;50.616;-3.404;2023-05-07T07:11:13;9.02;;;2.70;;
78322;SDS011;67583;50.616;-3.404;2023-05-07T07:13:38;6.43;;;2.70;;
78322;SDS011;67583;50.616;-3.404;2023-05-07T07:16:05;12.18;;;3.53;;
78322;SDS011;67583;50.616;-3.404;2023-05-07T07:18:31;5.90;;;2.30;;
78322;SDS011;67583;50.616;-3.404;2023-05-07T07:20:56;7.05;;;3.00;;
78322;SDS011;67583;50.616;-3.404;2023-05-07T07:23:22;6.18;;;2.35;;
78322;SDS011;67583;50.616;-3.404;2023-05-07T07:25:47;7.45;;;2.75;;
78322;SDS011;67583;50.616;-3.404;2023-05-07T07:28:13;5.10;;;2.55;;
78322;SDS011;67583;50.616;-3.404;2023-05-07T07:30:38;7.22;;;3.22;;
78322;SDS011;67583;50.616;-3.404;2023-05-07T07:33:04;7.72;;;2.33;;
78322;SDS011;67583;50.616;-3.404;2023-05-07T07:35:30;7.05;;;2.70;;
78322;SDS011;67583;50.616;-3.404;2023-05-07T07:37:58;8.02;;;2.90;;
78322;SDS011;67583;50.616;-3.404;2023-05-07T07:40:24;7.38;;;2.45;;
78322;SDS011;67583;50.616;-3.404;2023-05-07T07:42:50;4.75;;;2.17;;
78322;SDS011;67583;50.616;-3.404;2023-05-07T07:45:15;5.50;;;2.20;;
78322;SDS011;67583;50.616;-3.404;2023-05-07T07:47:41;5.55;;;2.10;;
78322;SDS011;67583;50.616;-3.404;2023-05-07T07:50:06;7.65;;;2.97;;
78322;SDS011;67583;50.616;-3.404;2023-05-07T07:52:33;8.02;;;3.10;;
78322;SDS011;67583;50.616;-3.404;2023-05-07T07:54:59;7.75;;;2.50;;
78322;SDS011;67583;50.616;-3.404;2023-05-07T07:57:24;9.85;;;2.95;;
78322;SDS011;67583;50.616;-3.404;2023-05-07T07:59:50;11.25;;;3.53;;
78322;SDS011;67583;50.616;-3.404;2023-05-07T08:02:16;10.18;;;3.47;;
78322;SDS011;67583;50.616;-3.404;2023-05-07T08:04:41;7.85;;;2.80;;
78322;SDS011;67583;50.616;-3.404;2023-05-07T08:07:08;7.35;;;2.33;;
78322;SDS011;67583;50.616;-3.404;2023-05-07T08:09:34;8.00;;;2.30;;
78322;SDS011;67583;50.616;-3.404;2023-05-07T08:12:00;6.32;;;2.30;;
78322;SDS011;67583;50.616;-3.404;2023-05-07T08:14:26;7.63;;;2.78;;
78322;SDS011;67583;50.616;-3.404;2023-05-07T08:16:53;7.63;;;3.00;;
78322;SDS011;67583;50.616;-3.404;2023-05-07T08:19:18;7.63;;;2.92;;
78322;SDS011;67583;50.616;-3.404;2023-05-07T08:21:44;9.07;;;3.28;;
78322;SDS011;67583;50.616;-3.404;2023-05-07T08:24:12;8.07;;;2.30;;
78322;SDS011;67583;50.616;-3.404;2023-05-07T08:26:38;7.45;;;2.60;;
78322;SDS011;67583;50.616;-3.404;2023-05-07T08:29:04;6.25;;;2.50;;
78322;SDS011;67583;50.616;-3.404;2023-05-07T08:31:29;12.05;;;2.45;;
78322;SDS011;67583;50.616;-3.404;2023-05-07T08:33:56;6.97;;;3.08;;
78322;SDS011;67583;50.616;-3.404;2023-05-07T08:36:22;9.07;;;3.00;;
78322;SDS011;67583;50.616;-3.404;2023-05-07T08:38:48;7.75;;;3.28;;
78322;SDS011;67583;50.616;-3.404;2023-05-07T08:41:15;8.38;;;2.97;;
78322;SDS011;67583;50.616;-3.404;2023-05-07T08:43:41;8.85;;;3.10;;
78322;SDS011;67583;50.616;-3.404;2023-05-07T08:46:06;7.63;;;3.15;;
78322;SDS011;67583;50.616;-3.404;2023-05-07T08:48:34;3.17;;;1.90;;
78322;SDS011;67583;50.616;-3.404;2023-05-07T08:51:00;12.48;;;3.17;;
78322;SDS011;67583;50.616;-3.404;2023-05-07T08:53:25;9.88;;;2.97;;
78322;SDS011;67583;50.616;-3.404;2023-05-07T08:55:51;9.52;;;2.70;;
78322;SDS011;67583;50.616;-3.404;2023-05-07T08:58:18;7.45;;;2.78;;
78322;SDS011;67583;50.616;-3.404;2023-05-07T09:00:43;6.53;;;2.53;;
78322;SDS011;67583;50.616;-3.404;2023-05-07T09:03:08;5.82;;;2.53;;
78322;SDS011;67583;50.616;-3.404;2023-05-07T09:05:37;6.18;;;2.63;;
78322;SDS011;67583;50.616;-3.404;2023-05-07T09:08:02;8.73;;;3.33;;
78322;SDS011;67583;50.616;-3.404;2023-05-07T09:10:29;7.00;;;2.30;;
78322;SDS011;67583;50.616;-3.404;2023-05-07T09:12:54;11.25;;;2.63;;
78322;SDS011;67583;50.616;-3.404;2023-05-07T09:15:20;7.40;;;2.95;;
78322;SDS011;67583;50.616;-3.404;2023-05-07T09:17:45;5.28;;;2.42;;
78322;SDS011;67583;50.616;-3.404;2023-05-07T09:20:11;8.82;;;3.35;;
78322;SDS011;67583;50.616;-3.404;2023-05-07T09:22:37;6.50;;;2.67;;
78322;SDS011;67583;50.616;-3.404;2023-05-07T09:25:03;6.97;;;2.80;;
78322;SDS011;67583;50.616;-3.404;2023-05-07T09:27:32;10.68;;;3.03;;
78322;SDS011;67583;50.616;-3.404;2023-05-07T09:29:57;7.55;;;2.83;;
78322;SDS011;67583;50.616;-3.404;2023-05-07T09:32:22;8.05;;;2.60;;
78322;SDS011;67583;50.616;-3.404;2023-05-07T09:34:48;9.15;;;2.92;;
78322;SDS011;67583;50.616;-3.404;2023-05-07T09:37:13;6.18;;;2.95;;
78322;SDS011;67583;50.616;-3.404;2023-05-07T09:39:46;5.90;;;2.58;;
78322;SDS011;67583;50.616;-3.404;2023-05-07T09:42:13;6.57;;;2.53;;
78322;SDS011;67583;50.616;-3.404;2023-05-07T09:44:40;9.38;;;2.47;;
78322;SDS011;67583;50.616;-3.404;2023-05-07T09:47:06;6.65;;;2.70;;
78322;SDS011;67583;50.616;-3.404;2023-05-07T09:49:35;8.30;;;2.25;;
78322;SDS011;67583;50.616;-3.404;2023-05-07T09:52:02;11.23;;;2.80;;
78322;SDS011;67583;50.616;-3.404;2023-05-07T09:54:31;9.30;;;2.75;;
78322;SDS011;67583;50.616;-3.404;2023-05-07T09:56:57;7.50;;;2.58;;
78322;SDS011;67583;50.616;-3.404;2023-05-07T09:59:23;10.02;;;2.88;;
78322;SDS011;67583;50.616;-3.404;2023-05-07T10:01:49;5.70;;;2.33;;
78322;SDS011;67583;50.616;-3.404;2023-05-07T10:04:16;6.30;;;2.30;;
78322;SDS011;67583;50.616;-3.404;2023-05-07T10:06:43;10.48;;;3.20;;
78322;SDS011;67583;50.616;-3.404;2023-05-07T10:09:09;9.73;;;2.92;;
78322;SDS011;67583;50.616;-3.404;2023-05-07T10:11:35;6.50;;;2.72;;
78322;SDS011;67583;50.616;-3.404;2023-05-07T10:14:01;7.53;;;3.15;;
78322;SDS011;67583;50.616;-3.404;2023-05-07T10:16:27;11.68;;;2.88;;
78322;SDS011;67583;50.616;-3.404;2023-05-07T10:18:57;10.80;;;2.65;;
78322;SDS011;67583;50.616;-3.404;2023-05-07T10:21:23;5.75;;;2.65;;
78322;SDS011;67583;50.616;-3.404;2023-05-07T10:26:45;7.80;;;2.70;;
78322;SDS011;67583;50.616;-3.404;2023-05-07T10:29:14;6.90;;;2.60;;
78322;SDS011;67583;50.616;-3.404;2023-05-07T10:31:48;5.82;;;2.42;;
78322;SDS011;67583;50.616;-3.404;2023-05-07T10:34:35;9.95;;;2.53;;
78322;SDS011;67583;50.616;-3.404;2023-05-07T10:37:03;8.38;;;3.03;;
78322;SDS011;67583;50.616;-3.404;2023-05-07T10:39:29;7.93;;;2.80;;
78322;SDS011;67583;50.616;-3.404;2023-05-07T10:41:54;9.60;;;2.50;;
78322;SDS011;67583;50.616;-3.404;2023-05-07T10:44:26;5.20;;;2.53;;
78322;SDS011;67583;50.616;-3.404;2023-05-07T10:47:10;7.93;;;2.58;;
78322;SDS011;67583;50.616;-3.404;2023-05-07T10:50:20;5.65;;;2.60;;
78322;SDS011;67583;50.616;-3.404;2023-05-07T10:52:31;7.00;;;2.90;;
78322;SDS011;67583;50.616;-3.404;2023-05-07T10:57:42;9.57;;;2.47;;
78322;SDS011;67583;50.616;-3.404;2023-05-07T11:05:29;6.93;;;2.90;;
78322;SDS011;67583;50.616;-3.404;2023-05-07T11:08:02;5.82;;;2.67;;
78322;SDS011;67583;50.616;-3.404;2023-05-07T11:10:47;4.20;;;2.25;;
78322;SDS011;67583;50.616;-3.404;2023-05-07T11:16:23;8.65;;;3.08;;
78322;SDS011;67583;50.616;-3.404;2023-05-07T11:18:50;7.47;;;3.20;;
78322;SDS011;67583;50.616;-3.404;2023-05-07T11:24:07;7.22;;;2.55;;
78322;SDS011;67583;50.616;-3.404;2023-05-07T11:29:18;6.60;;;2.70;;
78322;SDS011;67583;50.616;-3.404;2023-05-07T11:31:47;7.72;;;2.28;;
78322;SDS011;67583;50.616;-3.404;2023-05-07T11:34:13;9.02;;;3.00;;
78322;SDS011;67583;50.616;-3.404;2023-05-07T11:36:41;6.65;;;2.65;;
78322;SDS011;67583;50.616;-3.404;2023-05-07T11:41:55;4.68;;;2.40;;
78322;SDS011;67583;50.616;-3.404;2023-05-07T11:44:21;8.65;;;2.53;;
78322;SDS011;67583;50.616;-3.404;2023-05-07T11:46:46;6.70;;;3.00;;
78322;SDS011;67583;50.616;-3.404;2023-05-07T11:49:12;4.90;;;2.47;;
78322;SDS011;67583;50.616;-3.404;2023-05-07T11:51:37;8.63;;;2.70;;
78322;SDS011;67583;50.616;-3.404;2023-05-07T11:54:04;6.75;;;3.30;;
78322;SDS011;67583;50.616;-3.404;2023-05-07T11:56:33;7.30;;;2.85;;
78322;SDS011;67583;50.616;-3.404;2023-05-07T11:58:59;9.13;;;2.60;;
78322;SDS011;67583;50.616;-3.404;2023-05-07T12:01:25;8.00;;;3.15;;
78322;SDS011;67583;50.616;-3.404;2023-05-07T12:03:50;7.15;;;3.00;;
78322;SDS011;67583;50.616;-3.404;2023-05-07T12:06:16;6.53;;;2.90;;
78322;SDS011;67583;50.616;-3.404;2023-05-07T12:08:42;7.80;;;2.55;;
78322;SDS011;67583;50.616;-3.404;2023-05-07T12:11:29;10.02;;;2.70;;
78322;SDS011;67583;50.616;-3.404;2023-05-07T12:13:54;9.73;;;3.05;;
78322;SDS011;67583;50.616;-3.404;2023-05-07T12:16:20;6.55;;;2.95;;
78322;SDS011;67583;50.616;-3.404;2023-05-07T12:18:45;6.22;;;3.20;;
78322;SDS011;67583;50.616;-3.404;2023-05-07T12:21:11;6.10;;;2.58;;
78322;SDS011;67583;50.616;-3.404;2023-05-07T12:23:37;9.50;;;3.13;;
78322;SDS011;67583;50.616;-3.404;2023-05-07T12:26:03;3.65;;;2.78;;
78322;SDS011;67583;50.616;-3.404;2023-05-07T12:28:29;7.72;;;2.53;;
78322;SDS011;67583;50.616;-3.404;2023-05-07T12:30:55;9.00;;;2.28;;
78322;SDS011;67583;50.616;-3.404;2023-05-07T12:33:25;6.15;;;2.28;;
78322;SDS011;67583;50.616;-3.404;2023-05-07T12:35:52;7.57;;;2.53;;
78322;SDS011;67583;50.616;-3.404;2023-05-07T12:38:18;4.82;;;2.42;;
78322;SDS011;67583;50.616;-3.404;2023-05-07T12:40:48;5.18;;;2.13;;
78322;SDS011;67583;50.616;-3.404;2023-05-07T12:45:45;5.43;;;2.40;;
78322;SDS011;67583;50.616;-3.404;2023-05-07T12:48:12;3.63;;;1.90;;
78322;SDS011;67583;50.616;-3.404;2023-05-07T12:50:37;11.15;;;3.53;;
78322;SDS011;67583;50.616;-3.404;2023-05-07T12:53:06;5.32;;;2.60;;
78322;SDS011;67583;50.616;-3.404;2023-05-07T12:55:40;5.80;;;2.67;;
78322;SDS011;67583;50.616;-3.404;2023-05-07T13:01:06;10.23;;;2.67;;
78322;SDS011;67583;50.616;-3.404;2023-05-07T13:03:36;11.70;;;2.53;;
78322;SDS011;67583;50.616;-3.404;2023-05-07T13:06:03;8.10;;;2.60;;
78322;SDS011;67583;50.616;-3.404;2023-05-07T13:08:33;5.53;;;2.60;;
78322;SDS011;67583;50.616;-3.404;2023-05-07T13:11:00;7.05;;;2.83;;
78322;SDS011;67583;50.616;-3.404;2023-05-07T13:13:32;8.20;;;2.60;;
78322;SDS011;67583;50.616;-3.404;2023-05-07T13:16:02;8.95;;;2.70;;
78322;SDS011;67583;50.616;-3.404;2023-05-07T13:18:29;8.05;;;2.40;;
78322;SDS011;67583;50.616;-3.404;2023-05-07T13:20:55;7.32;;;2.65;;
78322;SDS011;67583;50.616;-3.404;2023-05-07T13:23:21;5.40;;;2.05;;
78322;SDS011;67583;50.616;-3.404;2023-05-07T13:25:47;8.48;;;2.95;;
78322;SDS011;67583;50.616;-3.404;2023-05-07T13:28:13;7.70;;;3.83;;
78322;SDS011;67583;50.616;-3.404;2023-05-07T13:30:38;6.30;;;2.38;;
78322;SDS011;67583;50.616;-3.404;2023-05-07T13:33:05;8.80;;;2.92;;
78322;SDS011;67583;50.616;-3.404;2023-05-07T13:35:31;6.05;;;2.10;;
78322;SDS011;67583;50.616;-3.404;2023-05-07T13:37:56;6.45;;;2.47;;
78322;SDS011;67583;50.616;-3.404;2023-05-07T13:40:22;10.13;;;2.83;;
78322;SDS011;67583;50.616;-3.404;2023-05-07T13:42:48;6.78;;;2.15;;
78322;SDS011;67583;50.616;-3.404;2023-05-07T13:45:14;7.45;;;2.45;;
78322;SDS011;67583;50.616;-3.404;2023-05-07T13:47:40;5.03;;;2.92;;
78322;SDS011;67583;50.616;-3.404;2023-05-07T13:50:07;5.30;;;2.47;;
78322;SDS011;67583;50.616;-3.404;2023-05-07T13:52:36;6.55;;;2.58;;
78322;SDS011;67583;50.616;-3.404;2023-05-07T13:55:02;4.22;;;2.30;;
78322;SDS011;67583;50.616;-3.404;2023-05-07T13:57:28;5.55;;;2.53;;
78322;SDS011;67583;50.616;-3.404;2023-05-07T13:59:53;4.97;;;2.15;;
78322;SDS011;67583;50.616;-3.404;2023-05-07T14:02:18;9.30;;;2.42;;
78322;SDS011;67583;50.616;-3.404;2023-05-07T14:04:44;5.70;;;2.67;;
78322;SDS011;67583;50.616;-3.404;2023-05-07T14:07:10;5.30;;;2.53;;
78322;SDS011;67583;50.616;-3.404;2023-05-07T14:09:35;6.28;;;2.53;;
78322;SDS011;67583;50.616;-3.404;2023-05-07T14:12:00;6.05;;;2.72;;
78322;SDS011;67583;50.616;-3.404;2023-05-07T14:14:26;9.65;;;2.80;;
78322;SDS011;67583;50.616;-3.404;2023-05-07T14:16:52;6.15;;;2.70;;
78322;SDS011;67583;50.616;-3.404;2023-05-07T14:19:17;4.43;;;2.15;;
78322;SDS011;67583;50.616;-3.404;2023-05-07T14:21:42;4.45;;;2.22;;
78322;SDS011;67583;50.616;-3.404;2023-05-07T14:24:08;5.90;;;2.60;;
78322;SDS011;67583;50.616;-3.404;2023-05-07T14:26:33;5.93;;;2.70;;
78322;SDS011;67583;50.616;-3.404;2023-05-07T14:28:59;6.80;;;2.70;;
78322;SDS011;67583;50.616;-3.404;2023-05-07T14:31:25;5.28;;;2.30;;
78322;SDS011;67583;50.616;-3.404;2023-05-07T14:33:50;5.55;;;2.88;;
78322;SDS011;67583;50.616;-3.404;2023-05-07T14:36:17;6.95;;;2.58;;
78322;SDS011;67583;50.616;-3.404;2023-05-07T14:38:45;8.15;;;2.63;;
78322;SDS011;67583;50.616;-3.404;2023-05-07T14:41:11;5.97;;;2.58;;
78322;SDS011;67583;50.616;-3.404;2023-05-07T14:43:36;7.53;;;2.75;;
78322;SDS011;67583;50.616;-3.404;2023-05-07T14:46:01;7.40;;;2.90;;
78322;SDS011;67583;50.616;-3.404;2023-05-07T14:48:27;7.32;;;3.30;;
78322;SDS011;67583;50.616;-3.404;2023-05-07T14:50:52;6.60;;;2.80;;